Time;durP1;ratioP1;P1;durP2;ratioP2;P2;SDS_P1;SDS_P2;PMS_P1;PMS_P2;Temp;Humidity;BMP_temperature;BMP_pressure;BME280_temperature;BME280_humidity;BME280_pressure;Samples;Min_cycle;Max_cycle;Signal;HPM_P1;HPM_P2
2024/01/03 18:06:44;;;;;;;2.13;1.73;;;9.30;1.00;;;;;;5102705;28;20290;-83
2024/01/03 18:09:13;;;;;;;1.23;1.13;;;9.20;1.00;;;;;;5103433;28;20448;-83
2024/01/03 18:11:40;;;;;;;1.60;1.50;;;9.20;1.00;;;;;;5110365;28;20432;-82
2024/01/03 18:14:07;;;;;;;2.23;2.03;;;9.20;1.00;;;;;;5105674;28;20790;-85
2024/01/03 18:16:34;;;;;;;3.53;1.77;;;9.20;1.00;;;;;;5098967;28;20511;-84
2024/01/03 18:19:01;;;;;;;5.93;4.13;;;9.20;1.00;;;;;;5099473;28;20434;-84
2024/01/03 18:21:27;;;;;;;3.87;1.40;;;9.30;1.00;;;;;;5102746;28;20448;-85
2024/01/03 18:23:56;;;;;;;3.03;1.43;;;9.30;1.00;;;;;;5101959;28;20877;-84
2024/01/03 18:26:23;;;;;;;6.40;2.47;;;9.30;1.00;;;;;;5099244;28;20483;-83
2024/01/03 18:28:50;;;;;;;2.07;1.60;;;9.30;1.00;;;;;;5101114;28;20439;-84
2024/01/03 18:31:17;;;;;;;1.67;1.53;;;9.30;1.00;;;;;;5101148;28;20440;-83
2024/01/03 18:33:43;;;;;;;1.53;1.43;;;9.30;99.90;;;;;;5102667;28;20439;-83
2024/01/03 18:36:12;;;;;;;2.07;1.80;;;9.30;99.90;;;;;;5101495;28;20487;-83
2024/01/03 18:38:39;;;;;;;2.90;2.37;;;9.30;99.90;;;;;;5101550;28;20459;-84
2024/01/03 18:41:08;;;;;;;2.20;1.90;;;9.30;99.90;;;;;;5100607;28;20939;-85
2024/01/03 18:43:35;;;;;;;3.40;2.60;;;9.30;99.90;;;;;;5101362;28;20815;-85
2024/01/03 18:46:01;;;;;;;4.93;2.27;;;9.30;99.90;;;;;;5101778;28;20555;-83
2024/01/03 18:48:28;;;;;;;3.30;2.10;;;9.30;99.90;;;;;;5100916;28;20515;-83
2024/01/03 18:50:55;;;;;;;2.70;1.97;;;9.30;99.90;;;;;;5101912;28;21020;-83
2024/01/03 18:53:27;;;;;;;3.00;1.90;;;9.30;99.90;;;;;;5101238;28;20422;-84
2024/01/03 18:55:55;;;;;;;6.50;2.47;;;9.20;99.90;;;;;;5100530;28;20551;-82
2024/01/03 18:58:24;;;;;;;3.87;2.10;;;9.20;99.90;;;;;;5109687;28;20444;-82
2024/01/03 19:00:55;;;;;;;3.83;2.50;;;9.10;99.90;;;;;;5114032;28;20440;-82
2024/01/03 19:03:22;;;;;;;3.30;2.33;;;9.10;99.90;;;;;;5101067;28;20420;-83
2024/01/03 19:05:49;;;;;;;2.53;2.27;;;9.10;99.90;;;;;;5101500;28;20450;-84
2024/01/03 19:08:16;;;;;;;3.23;2.13;;;9.10;99.90;;;;;;5107927;28;20439;-84
2024/01/03 19:10:43;;;;;;;3.80;2.00;;;9.00;99.90;;;;;;5109732;28;20455;-83
2024/01/03 19:13:10;;;;;;;4.43;2.33;;;9.00;1.00;;;;;;5107857;28;20440;-84
2024/01/03 19:15:38;;;;;;;4.33;2.97;;;9.00;1.00;;;;;;5103039;28;20496;-83
2024/01/03 19:18:05;;;;;;;4.20;1.90;;;9.00;1.00;;;;;;5091315;28;21043;-83
2024/01/03 19:20:32;;;;;;;3.70;1.77;;;9.00;99.90;;;;;;5091203;28;20448;-84
2024/01/03 19:22:59;;;;;;;5.77;2.53;;;9.00;99.90;;;;;;5088901;28;20592;-83
2024/01/03 19:25:26;;;;;;;2.13;1.73;;;9.10;99.90;;;;;;5088793;28;20477;-84
2024/01/03 19:27:53;;;;;;;3.90;1.70;;;9.10;99.90;;;;;;5083597;28;20523;-85
2024/01/03 19:30:20;;;;;;;4.03;2.30;;;9.10;99.90;;;;;;5080700;28;20434;-84
2024/01/03 19:32:48;;;;;;;3.00;1.57;;;9.20;99.90;;;;;;5088159;28;20487;-85
2024/01/03 19:35:16;;;;;;;4.30;2.20;;;9.30;99.90;;;;;;5086299;28;20583;-84
2024/01/03 19:37:44;;;;;;;1.77;1.60;;;9.40;99.90;;;;;;5084094;28;20456;-85
2024/01/03 19:40:11;;;;;;;2.77;2.13;;;9.50;99.90;;;;;;5083390;28;20474;-85
2024/01/03 19:42:38;;;;;;;5.53;2.13;;;9.50;99.90;;;;;;5082924;28;20440;-85
2024/01/03 19:45:06;;;;;;;2.07;1.77;;;9.60;99.90;;;;;;5083381;28;21013;-85
2024/01/03 19:47:33;;;;;;;7.03;2.20;;;9.60;58.50;;;;;;5087984;28;20512;-83
2024/01/03 19:50:01;;;;;;;3.73;2.00;;;9.60;28.00;;;;;;5084555;28;20440;-84
2024/01/03 19:52:28;;;;;;;2.00;1.90;;;9.60;48.90;;;;;;5086639;28;20431;-85
2024/01/03 19:54:56;;;;;;;3.10;2.07;;;9.60;98.60;;;;;;5090026;28;20539;-82
2024/01/03 19:57:22;;;;;;;5.27;1.80;;;9.60;24.80;;;;;;5095160;28;20445;-82
2024/01/03 19:59:49;;;;;;;4.80;1.93;;;9.60;1.00;;;;;;5085852;28;20483;-84
2024/01/03 20:02:16;;;;;;;2.37;2.17;;;9.60;1.00;;;;;;5084192;28;20494;-84
2024/01/03 20:04:43;;;;;;;4.20;2.10;;;9.70;1.00;;;;;;5085100;28;20518;-84
2024/01/03 20:07:12;;;;;;;4.10;2.07;;;9.70;1.00;;;;;;5088754;28;20456;-84
2024/01/03 20:09:39;;;;;;;3.53;1.70;;;9.70;1.00;;;;;;5087688;28;20524;-83
2024/01/03 20:12:06;;;;;;;3.07;1.60;;;9.70;1.00;;;;;;5085848;28;20527;-85
2024/01/03 20:14:33;;;;;;;3.07;1.87;;;9.70;1.00;;;;;;5085830;28;20545;-84
2024/01/03 20:17:00;;;;;;;2.93;2.00;;;9.70;1.00;;;;;;5085506;28;20585;-84
2024/01/03 20:19:27;;;;;;;3.50;1.90;;;9.70;1.00;;;;;;5086499;28;20960;-83
2024/01/03 20:21:54;;;;;;;3.90;1.83;;;9.80;1.00;;;;;;5086020;28;20484;-84
2024/01/03 20:24:24;;;;;;;2.83;1.77;;;9.80;1.00;;;;;;5083511;28;20512;-83
2024/01/03 20:26:51;;;;;;;4.13;1.70;;;9.80;1.00;;;;;;5082257;28;20459;-82
2024/01/03 20:29:18;;;;;;;4.70;2.63;;;9.80;1.00;;;;;;5082145;28;20472;-83
2024/01/03 20:31:45;;;;;;;3.97;1.77;;;9.80;1.00;;;;;;5091191;28;20418;-83
2024/01/03 20:34:12;;;;;;;2.80;1.77;;;9.80;1.00;;;;;;5082785;28;20529;-82
2024/01/03 20:36:46;;;;;;;5.80;1.97;;;9.90;1.00;;;;;;5080811;28;20484;-81
2024/01/03 20:39:15;;;;;;;2.93;2.17;;;9.80;1.00;;;;;;5083699;28;20515;-81
2024/01/03 20:41:45;;;;;;;2.90;1.50;;;9.90;1.00;;;;;;5092309;28;20940;-82
2024/01/03 20:44:12;;;;;;;2.70;1.90;;;9.90;1.00;;;;;;5088864;28;20923;-82
2024/01/03 20:46:41;;;;;;;4.17;2.47;;;9.80;1.00;;;;;;5089325;28;20461;-82
2024/01/03 20:49:09;;;;;;;2.90;1.80;;;9.80;1.00;;;;;;5085454;28;20475;-83
2024/01/03 20:51:36;;;;;;;3.43;1.83;;;9.80;1.00;;;;;;5084352;28;20516;-83
2024/01/03 20:54:03;;;;;;;2.40;1.80;;;9.90;1.00;;;;;;5084117;28;20449;-82
2024/01/03 20:56:31;;;;;;;5.00;2.90;;;9.80;1.00;;;;;;5083696;28;20512;-82
2024/01/03 20:59:00;;;;;;;2.17;1.97;;;9.80;1.00;;;;;;5088387;28;20448;-82
2024/01/03 21:01:27;;;;;;;2.30;2.00;;;9.80;1.00;;;;;;5096884;28;20451;-83
2024/01/03 21:03:53;;;;;;;2.43;1.20;;;9.80;1.00;;;;;;5086930;28;20454;-83
2024/01/03 21:06:20;;;;;;;2.70;1.63;;;9.80;1.00;;;;;;5091712;28;20480;-82
2024/01/03 21:08:47;;;;;;;2.27;2.07;;;9.80;1.00;;;;;;5092138;28;20445;-83
2024/01/03 21:11:14;;;;;;;1.63;1.50;;;9.80;1.00;;;;;;5085340;28;20476;-84
2024/01/03 21:13:42;;;;;;;1.70;1.60;;;9.80;1.00;;;;;;5082257;28;20870;-84
2024/01/03 21:16:13;;;;;;;3.43;1.97;;;9.70;1.00;;;;;;5081900;28;20484;-83
2024/01/03 21:18:40;;;;;;;7.83;2.63;;;9.70;1.00;;;;;;5082075;28;20436;-82
2024/01/03 21:21:08;;;;;;;1.63;1.53;;;9.70;1.00;;;;;;5082146;28;20440;-84
2024/01/03 21:23:35;;;;;;;2.00;1.80;;;9.70;1.00;;;;;;5081772;28;20512;-83
2024/01/03 21:26:02;;;;;;;3.80;1.87;;;9.70;1.00;;;;;;5082237;28;20491;-83
2024/01/03 21:28:29;;;;;;;1.70;1.43;;;9.60;1.00;;;;;;5085493;28;20453;-83
2024/01/03 21:30:57;;;;;;;2.03;1.70;;;9.60;1.00;;;;;;5081288;28;20453;-83
2024/01/03 21:33:25;;;;;;;3.93;1.77;;;9.70;1.00;;;;;;5088337;28;20452;-83
2024/01/03 21:35:52;;;;;;;4.07;1.90;;;9.70;1.00;;;;;;5083491;28;20546;-84
2024/01/03 21:38:18;;;;;;;2.57;1.73;;;9.70;1.00;;;;;;5082470;28;20459;-83
2024/01/03 21:40:45;;;;;;;5.23;1.70;;;9.60;1.00;;;;;;5079345;28;20441;-84
2024/01/03 21:43:12;;;;;;;1.93;1.70;;;9.60;1.00;;;;;;5077592;28;20463;-85
2024/01/03 21:45:39;;;;;;;3.77;1.80;;;9.60;1.00;;;;;;5079017;28;20460;-84
2024/01/03 21:48:07;;;;;;;3.57;1.53;;;9.60;1.00;;;;;;5084223;28;20504;-84
2024/01/03 21:50:35;;;;;;;2.63;1.80;;;9.50;1.00;;;;;;5095407;28;20496;-84
2024/01/03 21:53:02;;;;;;;1.63;1.10;;;9.50;1.00;;;;;;5082780;28;20527;-84
2024/01/03 21:55:28;;;;;;;2.47;1.37;;;9.40;1.00;;;;;;5088869;28;20567;-82
2024/01/03 21:57:56;;;;;;;3.17;1.37;;;9.40;1.00;;;;;;5096963;28;20959;-81
2024/01/03 22:00:23;;;;;;;1.40;1.30;;;9.50;1.00;;;;;;5085600;28;20500;-82
2024/01/03 22:02:51;;;;;;;3.40;2.10;;;9.50;1.00;;;;;;5083858;28;21020;-82
2024/01/03 22:05:20;;;;;;;2.57;1.60;;;9.50;1.00;;;;;;5082488;28;20480;-82
2024/01/03 22:07:49;;;;;;;1.80;1.70;;;9.50;1.00;;;;;;5077049;28;20445;-81
2024/01/03 22:10:17;;;;;;;3.17;1.50;;;9.50;1.00;;;;;;5077590;28;20441;-83
2024/01/03 22:12:47;;;;;;;2.53;1.80;;;9.50;1.00;;;;;;5079523;28;20468;-84
2024/01/03 22:15:15;;;;;;;5.27;2.50;;;9.40;1.00;;;;;;5078180;28;20888;-83
2024/01/03 22:17:42;;;;;;;3.07;1.40;;;9.40;1.00;;;;;;5077966;28;20467;-84
2024/01/03 22:20:09;;;;;;;2.23;1.43;;;9.40;1.00;;;;;;5079231;28;21011;-84
2024/01/03 22:22:36;;;;;;;2.17;1.40;;;9.40;1.00;;;;;;5079470;28;20433;-85
2024/01/03 22:25:04;;;;;;;1.70;1.60;;;9.30;1.00;;;;;;5078130;28;20446;-83
2024/01/03 22:27:31;;;;;;;2.63;1.50;;;9.40;1.00;;;;;;5079667;28;20441;-83
2024/01/03 22:29:58;;;;;;;1.47;1.37;;;9.40;1.00;;;;;;5079708;28;20479;-83
2024/01/03 22:32:25;;;;;;;3.40;1.80;;;9.40;16.80;;;;;;5079749;28;20439;-83
2024/01/03 22:34:52;;;;;;;2.83;2.57;;;9.40;1.00;;;;;;5079551;28;20448;-82
2024/01/03 22:37:19;;;;;;;3.67;2.50;;;9.40;1.00;;;;;;5079189;28;20567;-83
2024/01/03 22:39:46;;;;;;;7.00;2.33;;;9.40;1.00;;;;;;5078973;28;20760;-83
2024/01/03 22:42:14;;;;;;;1.97;1.87;;;9.30;1.00;;;;;;5077403;28;20484;-83
2024/01/03 22:44:40;;;;;;;2.13;1.90;;;9.30;1.00;;;;;;5077724;28;20441;-82
2024/01/03 22:47:10;;;;;;;1.30;1.20;;;9.30;1.00;;;;;;5077972;28;20874;-82
2024/01/03 22:49:37;;;;;;;3.13;1.53;;;9.20;1.00;;;;;;5078525;28;20437;-82
2024/01/03 22:52:05;;;;;;;2.90;1.63;;;9.30;22.60;;;;;;5081016;28;20527;-83
2024/01/03 22:54:33;;;;;;;3.17;1.50;;;9.20;69.60;;;;;;5082553;28;20987;-84
2024/01/03 22:57:00;;;;;;;2.67;1.60;;;9.20;99.90;;;;;;5081202;28;20486;-82
2024/01/03 22:59:28;;;;;;;3.53;1.90;;;9.20;99.90;;;;;;5081218;28;20418;-82
2024/01/03 23:01:55;;;;;;;2.33;1.60;;;9.20;99.90;;;;;;5086351;28;20950;-83
2024/01/03 23:04:22;;;;;;;1.63;1.50;;;9.20;99.90;;;;;;5093633;28;20476;-82
